createdAt,value
2018-12-24T00:01:58.393Z,9.03
2018-12-24T00:04:25.572Z,8.97
2018-12-24T00:06:52.783Z,9.10
2018-12-24T00:09:20.148Z,9.30
2018-12-24T00:11:47.320Z,9.00
2018-12-24T00:14:14.506Z,9.70
2018-12-24T00:16:41.776Z,9.57
2018-12-24T00:19:08.948Z,10.77
2018-12-24T00:21:36.131Z,9.23
2018-12-24T00:24:03.309Z,10.37
2018-12-24T00:26:30.491Z,10.37
2018-12-24T00:28:57.664Z,10.60
2018-12-24T00:31:24.848Z,10.40
2018-12-24T00:33:52.021Z,11.17
2018-12-24T00:36:19.198Z,11.53
2018-12-24T00:38:46.360Z,12.50
2018-12-24T00:41:13.544Z,11.67
2018-12-24T00:43:40.727Z,12.63
2018-12-24T00:46:07.905Z,12.03
2018-12-24T00:48:35.088Z,12.80
2018-12-24T00:51:02.284Z,13.33
2018-12-24T00:53:29.476Z,12.17
2018-12-24T00:55:56.657Z,11.87
2018-12-24T00:58:23.835Z,13.23
2018-12-24T01:00:51.017Z,12.83
2018-12-24T01:03:18.431Z,11.50
2018-12-24T01:05:45.607Z,10.07
2018-12-24T01:08:12.776Z,11.10
2018-12-24T01:10:39.961Z,11.03
2018-12-24T01:13:07.166Z,10.87
2018-12-24T01:15:34.375Z,11.77
2018-12-24T01:18:01.561Z,12.23
2018-12-24T01:20:28.748Z,11.60
2018-12-24T01:22:56.184Z,11.13
2018-12-24T01:25:23.464Z,12.27
2018-12-24T01:27:50.668Z,12.30
2018-12-24T01:30:18.905Z,12.83
2018-12-24T01:32:46.155Z,13.70
2018-12-24T01:35:13.324Z,13.20
2018-12-24T01:37:40.514Z,14.33
2018-12-24T01:40:07.683Z,15.20
2018-12-24T01:42:34.853Z,15.87
2018-12-24T01:45:02.153Z,15.43
2018-12-24T01:47:29.328Z,13.83
2018-12-24T01:49:56.491Z,14.60
2018-12-24T01:52:23.684Z,14.80
2018-12-24T01:54:50.873Z,15.70
2018-12-24T01:57:18.049Z,16.67
2018-12-24T01:59:45.227Z,16.60
2018-12-24T02:02:12.410Z,15.73
2018-12-24T02:04:39.585Z,15.20
2018-12-24T02:07:06.748Z,16.07
2018-12-24T02:09:33.924Z,15.40
2018-12-24T02:12:01.108Z,16.83
2018-12-24T02:14:28.280Z,16.43
2018-12-24T02:16:55.453Z,19.17
2018-12-24T02:19:22.628Z,16.33
2018-12-24T02:21:49.804Z,17.57
2018-12-24T02:24:16.980Z,18.47
2018-12-24T02:26:44.156Z,17.10
2018-12-24T02:29:11.333Z,17.37
2018-12-24T02:31:38.516Z,17.50
2018-12-24T02:34:05.703Z,18.37
2018-12-24T02:36:32.892Z,17.03
2018-12-24T02:39:00.323Z,14.80
2018-12-24T02:41:27.501Z,16.83
2018-12-24T02:43:54.695Z,15.83
2018-12-24T02:46:21.873Z,13.67
2018-12-24T02:48:49.069Z,14.63
2018-12-24T02:51:16.248Z,15.40
2018-12-24T02:53:43.424Z,14.73
2018-12-24T02:56:10.635Z,13.67
2018-12-24T02:58:37.805Z,14.23
2018-12-24T03:01:04.979Z,13.87
2018-12-24T03:03:32.157Z,15.77
2018-12-24T03:05:59.335Z,18.03
2018-12-24T03:08:26.511Z,14.60
2018-12-24T03:10:53.738Z,12.30
2018-12-24T03:13:20.906Z,13.53
2018-12-24T03:15:48.093Z,13.67
2018-12-24T03:18:15.262Z,11.03
2018-12-24T03:20:42.458Z,11.93
2018-12-24T03:23:09.636Z,12.20
2018-12-24T03:25:37.056Z,10.77
2018-12-24T03:28:04.233Z,11.07
2018-12-24T03:30:31.417Z,10.70
2018-12-24T03:32:58.604Z,10.47
2018-12-24T03:35:25.772Z,10.37
2018-12-24T03:37:52.952Z,9.77
2018-12-24T03:40:20.124Z,8.40
2018-12-24T03:42:47.354Z,8.53
2018-12-24T03:45:14.588Z,8.20
2018-12-24T03:47:41.769Z,8.77
2018-12-24T03:50:08.945Z,8.40
2018-12-24T03:52:36.133Z,8.40
2018-12-24T03:55:03.500Z,9.20
2018-12-24T03:57:30.688Z,9.03
2018-12-24T03:59:57.877Z,9.33
2018-12-24T04:02:25.064Z,8.17
2018-12-24T04:04:52.243Z,7.03
2018-12-24T04:07:19.424Z,7.80
2018-12-24T04:09:46.596Z,7.17
2018-12-24T04:12:13.790Z,7.07
2018-12-24T04:14:40.977Z,6.80
2018-12-24T04:17:08.161Z,7.63
2018-12-24T04:19:35.591Z,7.00
2018-12-24T04:22:02.804Z,6.67
2018-12-24T04:24:30.063Z,7.27
2018-12-24T04:26:57.227Z,8.20
2018-12-24T04:29:24.684Z,7.73
2018-12-24T04:31:51.959Z,6.80
2018-12-24T04:34:19.400Z,6.93
2018-12-24T04:36:46.596Z,6.37
2018-12-24T04:39:13.797Z,7.00
2018-12-24T04:41:40.959Z,7.43
2018-12-24T04:44:08.140Z,5.80
2018-12-24T04:46:35.335Z,6.50
2018-12-24T04:49:02.525Z,6.57
2018-12-24T04:51:29.696Z,6.10
2018-12-24T04:53:56.886Z,6.93
2018-12-24T04:56:24.048Z,6.50
2018-12-24T04:58:51.228Z,7.00
2018-12-24T05:01:18.407Z,7.67
2018-12-24T05:03:45.828Z,5.70
2018-12-24T05:06:13.004Z,7.60
2018-12-24T05:08:40.280Z,6.40
2018-12-24T05:11:07.455Z,5.27
2018-12-24T05:13:40.818Z,5.50
2018-12-24T05:16:03.877Z,5.77
2018-12-24T05:18:31.059Z,5.23
2018-12-24T05:20:58.235Z,5.13
2018-12-24T05:23:25.400Z,6.03
2018-12-24T05:25:52.571Z,4.50
2018-12-24T05:28:19.736Z,4.10
2018-12-24T05:30:46.927Z,3.83
2018-12-24T05:33:14.104Z,3.70
2018-12-24T05:35:41.323Z,3.40
2018-12-24T05:38:08.487Z,3.93
2018-12-24T05:40:35.664Z,3.60
2018-12-24T05:43:02.835Z,3.90
2018-12-24T05:45:30.112Z,3.50
2018-12-24T05:47:57.280Z,3.60
2018-12-24T05:50:24.463Z,3.53
2018-12-24T05:52:51.639Z,2.90
2018-12-24T05:55:18.807Z,3.50
2018-12-24T05:57:45.980Z,3.70
2018-12-24T06:00:13.260Z,2.80
2018-12-24T06:02:40.431Z,2.67
2018-12-24T06:05:07.600Z,2.73
2018-12-24T06:07:34.779Z,2.83
2018-12-24T06:10:02.048Z,3.17
2018-12-24T06:12:29.213Z,3.37
2018-12-24T06:14:56.375Z,2.60
2018-12-24T06:17:23.556Z,3.00
2018-12-24T06:19:50.755Z,3.63
2018-12-24T06:22:18.180Z,2.70
2018-12-24T06:24:45.368Z,3.20
2018-12-24T06:27:12.540Z,3.77
2018-12-24T06:29:39.719Z,3.20
2018-12-24T06:32:06.923Z,3.60
2018-12-24T06:34:34.168Z,4.23
2018-12-24T06:37:01.335Z,3.60
2018-12-24T06:39:28.563Z,4.17
2018-12-24T06:41:55.888Z,4.27
2018-12-24T06:44:23.071Z,3.73
2018-12-24T06:46:50.253Z,3.60
2018-12-24T06:49:17.424Z,4.17
2018-12-24T06:51:44.592Z,4.47
2018-12-24T06:54:11.764Z,4.63
2018-12-24T06:56:38.944Z,3.80
2018-12-24T06:59:06.121Z,4.33
2018-12-24T07:01:33.561Z,4.20
2018-12-24T07:04:00.745Z,4.17
2018-12-24T07:06:27.953Z,4.43
2018-12-24T07:08:55.388Z,3.80
2018-12-24T07:11:22.647Z,4.60
2018-12-24T07:13:50.122Z,4.40
2018-12-24T07:16:17.279Z,4.43
2018-12-24T07:18:44.466Z,5.03
2018-12-24T07:21:11.657Z,4.77
2018-12-24T07:23:38.876Z,4.97
2018-12-24T07:26:06.047Z,4.13
2018-12-24T07:28:33.231Z,4.30
2018-12-24T07:31:00.513Z,4.50
2018-12-24T07:33:27.721Z,5.80
2018-12-24T07:35:54.887Z,4.53
2018-12-24T07:38:22.067Z,4.67
2018-12-24T07:40:49.260Z,6.23
2018-12-24T07:43:16.500Z,6.33
2018-12-24T07:45:43.706Z,5.63
2018-12-24T07:48:10.908Z,5.17
2018-12-24T07:50:38.086Z,6.40
2018-12-24T07:53:05.253Z,5.33
2018-12-24T07:55:32.483Z,6.27
2018-12-24T07:57:59.655Z,4.93
2018-12-24T08:00:26.861Z,5.97
2018-12-24T08:02:54.288Z,5.90
2018-12-24T08:05:21.707Z,4.67
2018-12-24T08:07:48.881Z,5.37
2018-12-24T08:10:16.083Z,5.10
2018-12-24T08:12:43.280Z,4.90
2018-12-24T08:15:10.525Z,5.40
2018-12-24T08:17:37.905Z,5.27
2018-12-24T08:20:05.146Z,4.13
2018-12-24T08:22:32.323Z,5.00
2018-12-24T08:24:59.523Z,4.30
2018-12-24T08:27:26.712Z,4.67
2018-12-24T08:29:53.875Z,4.37
2018-12-24T08:32:21.064Z,3.70
2018-12-24T08:34:48.262Z,3.77
2018-12-24T08:37:15.440Z,4.27
2018-12-24T08:39:42.632Z,3.70
2018-12-24T08:42:09.816Z,4.57
2018-12-24T08:44:41.714Z,4.40
2018-12-24T08:47:06.108Z,3.97
2018-12-24T08:49:33.276Z,4.30
2018-12-24T08:52:00.459Z,4.27
2018-12-24T08:54:27.651Z,3.80
2018-12-24T08:56:55.060Z,3.50
2018-12-24T08:59:22.236Z,3.63
2018-12-24T09:01:49.413Z,3.83
2018-12-24T09:04:16.583Z,3.60
2018-12-24T09:06:43.752Z,3.20
2018-12-24T09:09:10.964Z,3.27
2018-12-24T09:11:38.156Z,3.70
2018-12-24T09:14:05.575Z,3.50
2018-12-24T09:16:32.908Z,3.77
2018-12-24T09:19:00.093Z,3.73
2018-12-24T09:21:27.295Z,3.77
2018-12-24T09:23:54.482Z,3.70
2018-12-24T09:26:21.669Z,3.80
2018-12-24T09:28:49.129Z,3.77
2018-12-24T09:31:16.321Z,4.40
2018-12-24T09:33:43.492Z,3.87
2018-12-24T09:36:10.780Z,4.43
2018-12-24T09:38:37.971Z,4.47
2018-12-24T09:41:05.169Z,4.27
2018-12-24T09:43:32.477Z,4.03
2018-12-24T09:45:59.652Z,4.40
2018-12-24T09:48:26.821Z,4.30
2018-12-24T09:50:54.016Z,4.50
2018-12-24T09:53:21.188Z,4.20
2018-12-24T09:55:48.370Z,3.90
2018-12-24T09:58:15.543Z,4.30
2018-12-24T10:00:42.988Z,4.00
2018-12-24T10:03:23.076Z,3.73
2018-12-24T10:05:51.387Z,3.47
2018-12-24T10:08:21.549Z,3.80
2018-12-24T10:22:07.964Z,3.10
2018-12-24T10:24:34.675Z,3.20
2018-12-24T10:27:01.397Z,3.17
2018-12-24T10:29:28.119Z,2.90
2018-12-24T10:31:54.888Z,2.73
2018-12-24T10:34:21.604Z,2.27
2018-12-24T10:36:48.344Z,2.70
2018-12-24T10:39:15.069Z,4.30
2018-12-24T10:41:41.839Z,3.47
2018-12-24T10:44:08.584Z,4.03
2018-12-24T10:46:35.289Z,3.47
2018-12-24T10:49:02.007Z,2.50
2018-12-24T10:51:28.736Z,2.53
2018-12-24T10:53:55.473Z,2.80
2018-12-24T10:56:22.211Z,2.97
2018-12-24T10:58:48.980Z,2.40
2018-12-24T11:01:15.744Z,2.23
2018-12-24T11:03:42.484Z,2.67
2018-12-24T11:06:09.200Z,1.90
2018-12-24T11:08:35.935Z,1.93
2018-12-24T11:11:02.661Z,2.77
2018-12-24T11:13:29.384Z,2.50
2018-12-24T11:15:56.177Z,2.30
2018-12-24T11:18:22.903Z,2.40
2018-12-24T11:20:49.643Z,2.30
2018-12-24T11:23:16.355Z,2.40
2018-12-24T11:25:43.092Z,2.10
2018-12-24T11:28:09.821Z,1.93
2018-12-24T11:30:37.961Z,2.10
2018-12-24T11:33:04.672Z,2.13
2018-12-24T11:35:31.395Z,2.40
2018-12-24T11:37:58.211Z,2.77
2018-12-24T11:40:25.041Z,2.20
2018-12-24T11:42:51.867Z,1.70
2018-12-24T11:45:19.104Z,1.90
2018-12-24T11:47:45.896Z,1.63
2018-12-24T11:50:12.617Z,1.60
2018-12-24T11:52:39.597Z,1.40
2018-12-24T11:55:06.407Z,1.30
2018-12-24T11:57:33.127Z,1.67
2018-12-24T11:59:59.951Z,1.60
2018-12-24T12:02:26.680Z,1.37
2018-12-24T12:04:53.416Z,1.80
2018-12-24T12:07:20.388Z,1.77
2018-12-24T12:09:47.364Z,1.70
2018-12-24T12:12:14.085Z,2.30
2018-12-24T12:14:40.807Z,1.80
2018-12-24T12:17:07.544Z,1.60
2018-12-24T12:19:34.275Z,1.80
2018-12-24T12:22:00.999Z,1.60
2018-12-24T12:24:27.725Z,1.43
2018-12-24T12:26:54.438Z,1.40
2018-12-24T12:29:21.248Z,1.60
2018-12-24T12:31:47.976Z,2.80
2018-12-24T12:34:14.724Z,1.77
2018-12-24T12:36:41.468Z,1.70
2018-12-24T12:39:08.186Z,1.53
2018-12-24T12:41:35.003Z,1.40
2018-12-24T12:44:01.725Z,1.73
2018-12-24T12:46:28.465Z,1.70
2018-12-24T12:48:55.192Z,1.73
2018-12-24T12:51:21.907Z,1.67
2018-12-24T12:53:48.640Z,1.73
2018-12-24T12:56:15.358Z,1.63
2018-12-24T12:58:42.084Z,1.97
2018-12-24T13:01:08.798Z,1.50
2018-12-24T13:03:35.526Z,1.80
2018-12-24T13:06:02.231Z,1.63
2018-12-24T13:08:29.109Z,1.70
2018-12-24T13:10:55.829Z,1.60
2018-12-24T13:13:22.548Z,1.60
2018-12-24T13:15:49.287Z,1.60
2018-12-24T13:18:16.016Z,1.90
2018-12-24T13:20:42.736Z,1.80
2018-12-24T13:23:09.448Z,1.97
2018-12-24T13:25:36.423Z,1.70
2018-12-24T13:28:03.128Z,1.77
2018-12-24T13:30:29.846Z,1.67
2018-12-24T13:32:56.693Z,1.90
2018-12-24T13:35:23.406Z,1.80
2018-12-24T13:37:50.136Z,1.87
2018-12-24T13:40:16.870Z,1.90
2018-12-24T13:42:43.591Z,1.90
2018-12-24T13:45:10.322Z,1.67
2018-12-24T13:47:37.043Z,2.00
2018-12-24T13:50:04.053Z,2.37
2018-12-24T13:52:30.832Z,1.90
2018-12-24T13:54:57.570Z,1.80
2018-12-24T13:57:24.295Z,2.07
2018-12-24T13:59:51.093Z,2.20
2018-12-24T14:02:17.853Z,2.10
2018-12-24T14:04:44.576Z,2.00
2018-12-24T14:07:11.300Z,2.10
2018-12-24T14:09:38.028Z,2.13
2018-12-24T14:12:04.736Z,2.17
2018-12-24T14:14:31.719Z,2.33
2018-12-24T14:16:58.441Z,2.07
2018-12-24T14:19:25.162Z,2.43
2018-12-24T14:21:51.879Z,3.97
2018-12-24T14:24:18.651Z,2.20
2018-12-24T14:26:45.432Z,2.50
2018-12-24T14:29:12.156Z,2.90
2018-12-24T14:31:38.871Z,2.90
2018-12-24T14:34:05.591Z,2.20
2018-12-24T14:36:32.330Z,2.70
2018-12-24T14:38:59.042Z,2.00
2018-12-24T14:41:25.780Z,3.23
2018-12-24T14:43:52.511Z,2.30
2018-12-24T14:46:25.567Z,2.17
2018-12-24T14:48:47.875Z,2.93
2018-12-24T14:51:14.615Z,2.30
2018-12-24T14:53:41.337Z,2.30
2018-12-24T14:56:08.116Z,2.77
2018-12-24T14:58:34.855Z,2.57
2018-12-24T15:01:01.591Z,2.30
2018-12-24T15:03:28.320Z,3.80
2018-12-24T15:05:55.035Z,2.90
2018-12-24T15:08:22.016Z,2.97
2018-12-24T15:10:48.792Z,2.87
2018-12-24T15:13:15.525Z,4.23
2018-12-24T15:15:42.248Z,3.93
2018-12-24T15:20:36.492Z,3.53
2018-12-24T15:23:03.308Z,3.97
2018-12-24T15:25:30.047Z,3.43
2018-12-24T15:27:56.777Z,2.43
2018-12-24T15:30:26.096Z,5.53
2018-12-24T15:32:52.835Z,3.47
2018-12-24T15:35:19.566Z,2.60
2018-12-24T15:37:46.293Z,2.30
2018-12-24T15:40:13.020Z,2.60
2018-12-24T15:42:39.753Z,3.17
2018-12-24T15:45:06.490Z,2.80
2018-12-24T15:47:33.235Z,3.00
2018-12-24T15:49:59.972Z,2.63
2018-12-24T15:52:26.719Z,2.90
2018-12-24T15:54:53.469Z,2.60
2018-12-24T15:57:20.209Z,2.50
2018-12-24T15:59:46.948Z,2.80
2018-12-24T16:02:13.676Z,2.23
2018-12-24T16:04:40.413Z,2.60
2018-12-24T16:07:07.138Z,2.73
2018-12-24T16:09:33.967Z,3.20
2018-12-24T16:12:00.695Z,2.73
2018-12-24T16:14:27.429Z,3.13
2018-12-24T16:16:54.161Z,3.30
2018-12-24T16:19:20.869Z,3.80
2018-12-24T16:21:47.584Z,3.17
2018-12-24T16:24:14.389Z,3.40
2018-12-24T16:26:41.117Z,2.60
2018-12-24T16:29:07.836Z,3.00
2018-12-24T16:31:34.572Z,2.93
2018-12-24T16:34:01.316Z,3.20
2018-12-24T16:36:28.044Z,3.77
2018-12-24T16:38:54.776Z,4.83
2018-12-24T16:41:21.500Z,4.60
2018-12-24T16:43:48.252Z,3.80
2018-12-24T16:46:15.028Z,3.70
2018-12-24T16:48:41.747Z,3.27
2018-12-24T16:51:08.477Z,3.92
2018-12-24T16:53:40.421Z,3.80
2018-12-24T16:56:03.944Z,4.20
2018-12-24T16:58:30.664Z,4.80
2018-12-24T17:00:57.396Z,4.37
2018-12-24T17:03:24.125Z,4.80
2018-12-24T17:05:51.112Z,4.83
2018-12-24T17:08:17.844Z,4.78
2018-12-24T17:10:44.676Z,4.50
2018-12-24T17:13:11.471Z,4.80
2018-12-24T17:15:38.211Z,5.15
2018-12-24T17:18:04.952Z,6.40
2018-12-24T17:20:31.789Z,6.65
2018-12-24T17:22:58.521Z,6.25
2018-12-24T17:25:25.244Z,6.42
2018-12-24T17:27:51.976Z,8.43
2018-12-24T17:30:19.395Z,7.05
2018-12-24T17:32:46.236Z,7.97
2018-12-24T17:35:12.964Z,10.68
2018-12-24T17:37:39.719Z,14.13
2018-12-24T17:40:06.447Z,12.90
2018-12-24T17:42:33.168Z,12.82
2018-12-24T17:45:04.105Z,11.68
2018-12-24T17:47:35.848Z,10.82
2018-12-24T17:50:06.213Z,12.37
2018-12-24T17:52:33.120Z,14.83
2018-12-24T17:54:59.861Z,12.88
2018-12-24T17:57:26.584Z,14.07
2018-12-24T17:59:53.351Z,14.60
2018-12-24T18:02:20.155Z,14.53
2018-12-24T18:04:46.875Z,15.88
2018-12-24T18:07:19.676Z,14.60
2018-12-24T18:09:46.399Z,14.83
2018-12-24T18:12:15.768Z,17.73
2018-12-24T18:14:42.475Z,19.80
2018-12-24T18:17:09.257Z,18.20
2018-12-24T18:19:35.975Z,19.32
2018-12-24T18:22:02.805Z,18.57
2018-12-24T18:24:29.540Z,17.07
2018-12-24T18:26:56.267Z,18.30
2018-12-24T18:29:23.074Z,15.78
2018-12-24T18:31:49.788Z,17.05
2018-12-24T18:34:16.520Z,16.07
2018-12-24T18:36:43.264Z,14.15
2018-12-24T18:39:09.981Z,13.93
2018-12-24T18:41:36.708Z,12.88
2018-12-24T18:44:03.444Z,12.93
2018-12-24T18:46:30.179Z,12.03
2018-12-24T18:48:56.909Z,14.00
2018-12-24T18:51:23.636Z,14.13
2018-12-24T18:53:50.369Z,14.98
2018-12-24T18:56:17.348Z,15.15
2018-12-24T18:58:44.096Z,10.82
2018-12-24T19:01:11.076Z,10.00
2018-12-24T19:03:37.810Z,9.23
2018-12-24T19:06:04.538Z,7.97
2018-12-24T19:08:31.267Z,9.70
2018-12-24T19:10:58.004Z,8.65
2018-12-24T19:13:24.972Z,8.48
2018-12-24T19:15:51.718Z,10.72
2018-12-24T19:18:18.439Z,12.33
2018-12-24T19:20:45.163Z,12.93
2018-12-24T19:23:11.903Z,14.28
2018-12-24T19:25:38.615Z,14.55
2018-12-24T19:28:05.349Z,16.70
2018-12-24T19:30:34.151Z,16.80
2018-12-24T19:33:00.891Z,20.92
2018-12-24T19:35:27.619Z,16.30
2018-12-24T19:37:54.335Z,20.02
2018-12-24T19:40:21.089Z,19.67
2018-12-24T19:42:47.827Z,19.70
2018-12-24T19:45:14.547Z,21.70
2018-12-24T19:47:41.272Z,24.07
2018-12-24T19:50:08.295Z,25.00
2018-12-24T19:52:35.025Z,25.00
2018-12-24T19:55:01.769Z,26.75
2018-12-24T19:57:28.496Z,38.05
2018-12-24T19:59:55.483Z,32.17
2018-12-24T20:02:22.216Z,31.57
2018-12-24T20:04:52.029Z,31.05
2018-12-24T20:07:18.747Z,33.90
2018-12-24T20:09:50.124Z,56.90
2018-12-24T20:12:16.941Z,48.63
2018-12-24T20:14:43.676Z,30.55
2018-12-24T20:17:10.443Z,32.08
2018-12-24T20:19:37.271Z,42.08
2018-12-24T20:22:04.255Z,36.63
2018-12-24T20:24:31.032Z,32.88
2018-12-24T20:27:00.776Z,28.95
2018-12-24T20:29:27.505Z,28.05
2018-12-24T20:31:54.235Z,30.92
2018-12-24T20:34:20.975Z,28.87
2018-12-24T20:36:47.800Z,29.85
2018-12-24T20:39:14.735Z,26.55
2018-12-24T20:41:41.472Z,30.77
2018-12-24T20:44:08.211Z,31.97
2018-12-24T20:46:34.952Z,29.07
2018-12-24T20:49:01.696Z,27.35
2018-12-24T20:51:28.945Z,25.90
2018-12-24T20:53:55.670Z,28.87
2018-12-24T20:56:22.399Z,25.92
2018-12-24T20:58:49.367Z,27.10
2018-12-24T21:01:16.120Z,26.50
2018-12-24T21:03:42.839Z,29.60
2018-12-24T21:06:09.630Z,28.87
2018-12-24T21:08:36.368Z,29.03
2018-12-24T21:11:03.343Z,27.45
2018-12-24T21:13:30.082Z,28.17
2018-12-24T21:15:56.820Z,26.50
2018-12-24T21:18:23.551Z,25.90
2018-12-24T21:20:50.284Z,26.50
2018-12-24T21:23:17.028Z,25.73
2018-12-24T21:25:43.774Z,26.53
2018-12-24T21:28:10.488Z,26.80
2018-12-24T21:30:37.209Z,28.43
2018-12-24T21:33:03.923Z,26.83
2018-12-24T21:35:30.680Z,24.77
2018-12-24T21:37:57.412Z,27.50
2018-12-24T21:40:24.145Z,24.13
2018-12-24T21:42:54.640Z,22.97
2018-12-24T21:45:19.493Z,21.47
2018-12-24T21:47:46.225Z,25.65
2018-12-24T21:50:12.961Z,22.37
2018-12-24T21:52:39.681Z,20.67
2018-12-24T21:55:06.412Z,20.47
2018-12-24T21:57:33.423Z,18.47
2018-12-24T22:00:00.159Z,18.48
2018-12-24T22:02:26.883Z,16.63
2018-12-24T22:04:53.613Z,16.17
2018-12-24T22:07:20.344Z,16.87
2018-12-24T22:09:47.080Z,16.05
2018-12-24T22:12:13.812Z,17.57
2018-12-24T22:14:40.536Z,16.63
2018-12-24T22:17:07.260Z,16.00
2018-12-24T22:19:33.987Z,16.67
2018-12-24T22:22:00.721Z,16.13
2018-12-24T22:24:27.464Z,15.90
2018-12-24T22:26:54.168Z,15.87
2018-12-24T22:29:20.924Z,16.63
2018-12-24T22:31:47.639Z,40.17
2018-12-24T22:34:14.409Z,37.13
2018-12-24T22:36:41.149Z,17.83
2018-12-24T22:39:07.873Z,16.83
2018-12-24T22:41:34.579Z,15.43
2018-12-24T22:44:01.297Z,14.40
2018-12-24T22:46:28.028Z,16.33
2018-12-24T22:48:54.764Z,16.80
2018-12-24T22:51:21.509Z,15.00
2018-12-24T22:53:48.231Z,15.97
2018-12-24T22:56:14.964Z,15.27
2018-12-24T22:58:41.723Z,19.73
2018-12-24T23:01:08.640Z,17.97
2018-12-24T23:03:35.368Z,14.53
2018-12-24T23:06:02.092Z,15.03
2018-12-24T23:08:28.809Z,13.97
2018-12-24T23:10:55.539Z,14.27
2018-12-24T23:13:22.247Z,13.93
2018-12-24T23:15:48.978Z,15.53
2018-12-24T23:18:15.971Z,16.00
2018-12-24T23:20:42.803Z,16.30
2018-12-24T23:23:09.527Z,15.90
2018-12-24T23:25:36.239Z,16.30
2018-12-24T23:28:03.192Z,15.50
2018-12-24T23:30:30.093Z,15.43
2018-12-24T23:32:56.811Z,14.60
2018-12-24T23:35:23.540Z,14.83
2018-12-24T23:37:50.264Z,15.07
2018-12-24T23:40:16.976Z,16.20
2018-12-24T23:42:43.765Z,17.20
2018-12-24T23:45:10.598Z,15.90
2018-12-24T23:47:37.311Z,16.40
2018-12-24T23:50:04.294Z,17.00
2018-12-24T23:52:31.014Z,16.70
2018-12-24T23:54:57.733Z,16.23
2018-12-24T23:57:24.476Z,16.20
2018-12-24T23:59:51.248Z,16.63
